This is the latest recevied weather packets stored in our database for station/object IZ4MEH-10. If no packets are shown the sender has not sent any weather packets the latest 10 day(s).
| Time | Temp. | Humidity | Pressure | Rain* | Wind** | Luminosity | Snow |
|---|---|---|---|---|---|---|---|
| 1777624685 | 27.22° C | 25% | 1026.5 hPa | - | - | - | - |
| 1777622884 | 27.22° C | 25% | 1026.4 hPa | - | - | - | - |
| 1777621082 | 26.11° C | 26% | 1026.4 hPa | - | - | - | - |
| 1777619281 | 23.33° C | 29% | 1026.2 hPa | - | - | - | - |
| 1777617479 | 23.33° C | 28% | 1026.1 hPa | - | - | - | - |
| 1777615679 | 22.78° C | 32% | 1025.9 hPa | - | - | - | - |
| 1777612076 | 10.56° C | 60% | 1025.6 hPa | - | - | - | - |
| 1777610276 | 9.44° C | 64% | 1025.3 hPa | - | - | - | - |
| 1777608474 | 9.44° C | 63% | 1024.8 hPa | - | - | - | - |
| 1777606673 | 8.89° C | 62% | 1024.8 hPa | - | - | - | - |
| 1777604870 | 8.33° C | 65% | 1024.7 hPa | - | - | - | - |
| 1777603068 | 8.33° C | 64% | 1024.6 hPa | - | - | - | - |
| 1777601268 | 7.78° C | 66% | 1024.7 hPa | - | - | - | - |
| 1777599466 | 8.33° C | 64% | 1024.6 hPa | - | - | - | - |
| 1777597664 | 8.89° C | 60% | 1024.6 hPa | - | - | - | - |
| 1777595863 | 9.44° C | 58% | 1024.6 hPa | - | - | - | - |
| 1777594062 | 10° C | 56% | 1024.5 hPa | - | - | - | - |
| 1777592261 | 10.56° C | 52% | 1024.3 hPa | - | - | - | - |
| 1777590459 | 10.56° C | 53% | 1024.3 hPa | - | - | - | - |
| 1777588657 | 11.11° C | 49% | 1024.1 hPa | - | - | - | - |
| 1777586856 | 11.67° C | 45% | 1023.8 hPa | - | - | - | - |
| 1777585054 | 12.22° C | 42% | 1023.6 hPa | - | - | - | - |
| 1777583253 | 12.78° C | 40% | 1023.4 hPa | - | - | - | - |
| 1777581452 | 13.33° C | 37% | 1023.4 hPa | - | - | - | - |
| 1777579650 | 13.89° C | 33% | 1023.1 hPa | - | - | - | - |
* Rain since midnight (hover to see other rain measurements)
** Current wind speed in m/s (hover to see current wind gust speed)